Time;durP1;ratioP1;P1;durP2;ratioP2;P2;SDS_P1;SDS_P2;PMS_P1;PMS_P2;Temp;Humidity;BMP_temperature;BMP_pressure;BME280_temperature;BME280_humidity;BME280_pressure;Samples;Min_cycle;Max_cycle;Signal;HPM_P1;HPM_P2
2022/05/24 00:00:24;;;;;;;15.30;6.75;;;;;;;19.98;48.29;94693.69;4919817;29;20094;-81
2022/05/24 00:02:49;;;;;;;20.15;6.72;;;;;;;20.50;47.82;94750.09;4936764;29;20118;-82
2022/05/24 00:05:17;;;;;;;12.32;5.38;;;;;;;20.26;48.83;94732.13;4920423;29;20122;-82
2022/05/24 00:07:44;;;;;;;13.18;5.80;;;;;;;20.46;50.17;94784.22;4936770;29;20046;-81
2022/05/24 00:10:14;;;;;;;9.52;4.57;;;;;;;20.38;50.25;94780.53;4920458;29;20549;-82
2022/05/24 00:12:42;;;;;;;9.65;3.70;;;;;;;20.13;49.36;94778.31;4937528;29;20425;-82
2022/05/24 00:15:20;;;;;;;10.43;4.10;;;;;;;19.91;48.57;94715.78;4919517;29;20075;-82
2022/05/24 00:17:48;;;;;;;9.45;3.47;;;;;;;20.18;47.99;94772.66;4919399;29;20066;-81
2022/05/24 00:20:15;;;;;;;7.00;3.40;;;;;;;19.87;47.58;94716.81;4936829;29;20054;-82
2022/05/24 00:22:41;;;;;;;5.95;3.03;;;;;;;20.07;47.42;94764.28;4937416;29;20387;-81
2022/05/24 00:25:07;;;;;;;10.50;2.90;;;;;;;19.67;47.52;94732.03;4937474;29;20054;-82
2022/05/24 00:27:32;;;;;;;6.88;3.28;;;;;;;19.62;48.04;94757.25;4937143;29;20043;-81
2022/05/24 00:30:00;;;;;;;7.60;2.90;;;;;;;19.24;47.73;94677.00;4918004;29;20035;-81
2022/05/24 00:32:26;;;;;;;6.47;2.88;;;;;;;19.72;47.70;94769.47;4937078;29;20039;-82
2022/05/24 00:34:51;;;;;;;11.32;3.08;;;;;;;19.37;47.90;94734.22;4919516;29;20703;-81
2022/05/24 00:37:23;;;;;;;5.97;2.70;;;;;;;19.31;47.60;94694.44;4919107;29;20046;-82
2022/05/24 00:39:48;;;;;;;4.63;3.08;;;;;;;19.76;47.88;94783.78;4936145;29;20044;-82
2022/05/24 00:42:19;;;;;;;9.48;3.38;;;;;;;19.33;47.87;94740.59;4919521;29;20485;-82
2022/05/24 00:45:19;;;;;;;8.70;3.13;;;;;;;18.38;47.94;94581.53;4919312;29;20051;-81
2022/05/24 00:48:00;;;;;;;4.90;2.63;;;;;;;19.25;47.95;94723.47;4917778;29;20122;-81
2022/05/24 00:50:31;;;;;;;5.05;2.70;;;;;;;19.69;47.19;94754.00;4936338;29;20043;-81
2022/05/24 00:53:06;;;;;;;5.47;2.42;;;;;;;19.51;47.78;94764.25;4918770;29;20129;-82
2022/05/24 00:55:44;;;;;;;7.28;2.70;;;;;;;19.36;47.70;94738.03;4918987;29;20043;-82
2022/05/24 00:58:30;;;;;;;7.05;2.90;;;;;;;19.77;47.47;94793.44;4935378;28;20051;-81
2022/05/24 01:01:00;;;;;;;5.88;2.30;;;;;;;19.90;46.85;94805.75;4918756;29;20094;-82
2022/05/24 01:03:26;;;;;;;7.38;2.58;;;;;;;19.83;47.23;94802.84;4918575;29;20497;-82
2022/05/24 01:05:51;;;;;;;6.18;2.63;;;;;;;19.70;47.46;94787.84;4936247;29;20039;-81
2022/05/24 01:08:16;;;;;;;10.00;2.70;;;;;;;18.92;47.68;94696.75;4936271;29;20465;-81
2022/05/24 01:10:48;;;;;;;6.32;3.28;;;;;;;19.66;46.95;94776.22;4918916;29;20518;-81
2022/05/24 01:13:19;;;;;;;6.18;2.72;;;;;;;19.64;47.19;94771.16;4919250;29;20391;-81
2022/05/24 01:15:45;;;;;;;4.82;2.58;;;;;;;19.58;47.21;94742.94;4919345;29;20043;-82
2022/05/24 01:18:12;;;;;;;8.32;2.80;;;;;;;19.61;46.89;94736.88;4919185;29;20028;-82
2022/05/24 01:20:44;;;;;;;7.97;3.13;;;;;;;19.59;47.11;94719.53;4935781;29;20047;-82
2022/05/24 01:23:39;;;;;;;9.80;2.92;;;;;;;19.38;47.16;94683.91;4919181;29;20576;-81
2022/05/24 01:26:42;;;;;;;6.22;3.15;;;;;;;19.99;47.53;94790.22;4935957;29;20043;-82
2022/05/24 01:29:09;;;;;;;10.45;3.03;;;;;;;19.49;47.80;94728.84;4935871;28;20046;-82
2022/05/24 01:37:07;;;;;;;8.70;3.10;;;;;;;19.19;48.62;94685.31;4936017;29;20054;-82
2022/05/24 01:39:33;;;;;;;12.15;3.10;;;;;;;19.42;48.78;94725.91;4935072;29;20454;-81
2022/05/24 01:41:59;;;;;;;10.15;3.38;;;;;;;19.70;48.89;94755.56;4935004;29;20042;-82
2022/05/24 01:44:37;;;;;;;6.93;3.42;;;;;;;19.37;48.54;94701.97;4935798;29;20027;-82
2022/05/24 01:47:03;;;;;;;5.63;2.95;;;;;;;19.86;48.78;94790.59;4935707;29;20032;-81
2022/05/24 01:49:32;;;;;;;13.10;2.85;;;;;;;19.30;48.95;94690.97;4917984;29;20027;-81
2022/05/24 01:52:20;;;;;;;7.25;3.20;;;;;;;19.79;49.47;94774.25;4918297;29;20038;-82
2022/05/24 01:54:50;;;;;;;7.78;2.88;;;;;;;19.53;49.81;94747.78;4935224;29;20056;-81
2022/05/24 01:57:20;;;;;;;6.68;3.67;;;;;;;19.22;49.93;94716.09;4917745;29;20083;-81
2022/05/24 01:59:51;;;;;;;9.40;2.92;;;;;;;19.50;49.90;94737.69;4935202;29;20403;-81
2022/05/24 02:02:17;;;;;;;10.50;3.17;;;;;;;19.44;50.17;94731.75;4936061;29;20099;-82
2022/05/24 02:04:42;;;;;;;14.52;3.72;;;;;;;19.57;50.79;94776.34;4918154;29;20106;-82
2022/05/24 02:07:20;;;;;;;9.98;3.90;;;;;;;19.80;50.28;94791.97;4917589;29;20039;-81
2022/05/24 02:09:48;;;;;;;6.07;3.28;;;;;;;19.63;50.90;94769.59;4934365;29;20425;-83
2022/05/24 02:12:18;;;;;;;9.95;3.75;;;;;;;19.12;51.86;94733.47;4918368;29;20040;-82
2022/05/24 02:14:48;;;;;;;10.80;3.45;;;;;;;18.94;51.21;94693.72;4934823;28;20043;-82
2022/05/24 02:17:17;;;;;;;7.70;3.47;;;;;;;19.35;51.12;94773.31;4935123;29;20044;-82
2022/05/24 02:19:50;;;;;;;8.82;3.47;;;;;;;19.70;51.43;94816.66;4918090;29;20059;-82
2022/05/24 02:22:20;;;;;;;15.23;3.90;;;;;;;18.91;51.25;94675.63;4935312;29;20431;-82
2022/05/24 02:24:48;;;;;;;8.25;3.53;;;;;;;19.57;51.44;94775.56;4917956;29;20039;-82
2022/05/24 02:27:14;;;;;;;13.82;3.80;;;;;;;19.57;51.45;94767.47;4935099;29;20043;-82
2022/05/24 02:29:39;;;;;;;14.05;3.63;;;;;;;19.51;51.30;94744.63;4918085;29;20826;-81
2022/05/24 02:32:05;;;;;;;8.98;3.38;;;;;;;19.10;51.67;94689.22;4917618;29;20047;-81
2022/05/24 02:34:30;;;;;;;7.30;3.63;;;;;;;19.26;51.51;94715.06;4917933;29;20039;-82
2022/05/24 02:36:56;;;;;;;9.82;3.35;;;;;;;19.20;51.25;94694.94;4917742;29;20063;-82
2022/05/24 02:39:21;;;;;;;7.85;3.20;;;;;;;19.78;51.13;94807.66;4917631;29;20422;-81
2022/05/24 02:41:47;;;;;;;7.85;3.35;;;;;;;18.74;51.07;94661.28;4917559;29;20513;-82
2022/05/24 02:44:14;;;;;;;8.93;3.30;;;;;;;18.91;51.23;94710.53;4917407;29;20043;-82
2022/05/24 02:46:43;;;;;;;8.40;3.03;;;;;;;19.57;51.49;94805.13;4934835;29;20039;-81
2022/05/24 02:49:08;;;;;;;10.75;3.38;;;;;;;18.79;51.92;94714.78;4934738;29;20474;-82
2022/05/24 02:51:37;;;;;;;11.70;3.20;;;;;;;19.26;51.88;94768.84;4934569;29;20067;-82
2022/05/24 02:54:04;;;;;;;11.45;3.97;;;;;;;19.41;52.05;94807.69;4916451;29;20422;-82
2022/05/24 02:56:30;;;;;;;8.27;3.78;;;;;;;18.43;51.99;94655.66;4933916;29;20055;-81
2022/05/24 02:58:58;;;;;;;11.23;3.85;;;;;;;18.32;52.36;94655.31;4917133;29;20114;-81
2022/05/24 03:01:26;;;;;;;11.55;3.22;;;;;;;19.11;53.00;94815.22;4917707;29;20043;-81
2022/05/24 03:03:53;;;;;;;11.00;3.40;;;;;;;18.60;52.33;94724.53;4917601;29;20040;-82
2022/05/24 03:06:20;;;;;;;10.25;3.13;;;;;;;18.48;52.91;94709.91;4918970;29;20058;-82
2022/05/24 03:14:17;;;;;;;9.57;3.88;;;;;;;19.11;53.05;94820.59;4935247;29;20084;-81
2022/05/24 03:16:52;;;;;;;10.48;3.72;;;;;;;19.18;52.62;94810.06;4901675;29;20035;-82
2022/05/24 03:19:18;;;;;;;12.20;3.30;;;;;;;18.77;52.85;94732.34;4917105;29;20027;-82
2022/05/24 03:21:43;;;;;;;8.35;3.47;;;;;;;18.73;52.46;94739.53;4917438;29;20728;-82
2022/05/24 03:24:09;;;;;;;6.32;3.20;;;;;;;18.83;52.75;94755.22;4934569;29;20028;-82
2022/05/24 03:26:35;;;;;;;8.20;3.38;;;;;;;18.86;53.11;94770.63;4934728;28;20035;-82
2022/05/24 03:29:01;;;;;;;9.43;3.83;;;;;;;18.85;52.43;94759.09;4917245;29;20099;-81
2022/05/24 03:31:26;;;;;;;10.25;3.58;;;;;;;19.08;52.31;94794.38;4917241;29;20040;-82
2022/05/24 03:33:52;;;;;;;5.50;3.45;;;;;;;19.22;52.71;94810.94;4934490;29;20043;-81
2022/05/24 03:36:19;;;;;;;10.90;3.80;;;;;;;19.34;52.31;94804.00;4916744;29;20040;-82
2022/05/24 03:38:45;;;;;;;13.18;4.30;;;;;;;18.77;52.26;94737.72;4934061;29;20039;-81
2022/05/24 03:41:11;;;;;;;8.98;3.60;;;;;;;19.21;52.53;94812.09;4916942;29;20413;-82
2022/05/24 03:43:36;;;;;;;13.73;3.63;;;;;;;19.20;52.05;94791.72;4917031;29;20034;-82
2022/05/24 03:46:07;;;;;;;8.80;3.55;;;;;;;19.38;52.22;94821.03;4916707;29;20032;-82
2022/05/24 03:48:33;;;;;;;11.25;3.80;;;;;;;19.31;52.61;94823.50;4917365;29;20063;-82
2022/05/24 03:50:59;;;;;;;7.72;3.65;;;;;;;18.67;52.29;94711.31;4916950;29;20110;-82
2022/05/24 03:53:26;;;;;;;10.57;3.53;;;;;;;19.02;52.84;94798.41;4917089;29;20052;-82
2022/05/24 03:55:52;;;;;;;9.18;4.10;;;;;;;18.84;52.48;94754.84;4934207;29;20091;-83
2022/05/24 03:58:18;;;;;;;9.75;2.90;;;;;;;19.10;52.79;94813.66;4934497;29;20105;-81
2022/05/24 04:00:44;;;;;;;7.68;3.67;;;;;;;19.13;52.92;94817.56;4934186;29;20598;-82
2022/05/24 04:03:10;;;;;;;10.50;3.47;;;;;;;19.06;52.55;94796.63;4916829;29;20126;-82
2022/05/24 04:05:37;;;;;;;12.27;4.00;;;;;;;18.59;52.54;94729.09;4936750;29;20044;-82
2022/05/24 04:08:03;;;;;;;11.77;3.65;;;;;;;19.09;53.04;94828.19;4920174;29;20040;-82
2022/05/24 04:10:30;;;;;;;15.00;3.85;;;;;;;19.14;52.90;94836.06;4920274;29;20032;-82
2022/05/24 04:12:56;;;;;;;8.38;3.78;;;;;;;18.76;53.59;94801.44;4919398;29;20586;-82
2022/05/24 04:15:23;;;;;;;10.90;4.05;;;;;;;19.08;53.22;94845.44;4920373;29;20039;-82
2022/05/24 04:17:53;;;;;;;15.15;3.92;;;;;;;18.13;53.07;94688.06;4919982;29;20043;-82
2022/05/24 04:20:21;;;;;;;16.20;4.10;;;;;;;19.05;53.12;94807.72;4903997;29;20035;-82
2022/05/24 04:22:46;;;;;;;8.20;4.25;;;;;;;19.12;53.54;94830.22;4919701;29;20488;-82
2022/05/24 04:25:13;;;;;;;11.23;3.95;;;;;;;18.60;53.87;94776.34;4919794;29;20127;-82
2022/05/24 04:27:40;;;;;;;15.00;3.75;;;;;;;18.07;54.90;94726.19;4920052;29;20027;-81
2022/05/24 04:30:08;;;;;;;12.18;3.65;;;;;;;18.98;54.28;94829.78;4936943;29;20116;-82
2022/05/24 04:32:33;;;;;;;19.40;4.32;;;;;;;18.52;54.44;94775.28;4937487;29;20395;-82
2022/05/24 04:34:59;;;;;;;11.93;4.25;;;;;;;18.20;55.28;94776.09;4937094;29;20032;-81
2022/05/24 04:37:27;;;;;;;10.13;4.28;;;;;;;18.02;55.68;94750.53;4919708;29;20039;-81
2022/05/24 04:39:52;;;;;;;16.58;4.32;;;;;;;18.35;54.55;94751.31;4919984;29;20040;-81
2022/05/24 04:42:23;;;;;;;17.27;3.85;;;;;;;18.33;54.60;94745.47;4937389;29;20038;-82
2022/05/24 04:44:58;;;;;;;14.27;4.90;;;;;;;18.72;53.78;94757.53;4919271;29;20032;-82
2022/05/24 04:47:28;;;;;;;13.93;4.60;;;;;;;18.56;53.88;94727.06;4936923;29;20042;-82
2022/05/24 04:49:56;;;;;;;10.82;4.35;;;;;;;18.59;54.51;94768.59;4919814;29;20039;-82
2022/05/24 04:52:26;;;;;;;10.88;4.13;;;;;;;18.48;54.01;94730.63;4919238;29;20114;-81
2022/05/24 04:54:53;;;;;;;11.48;4.70;;;;;;;19.23;53.74;94841.31;4936247;29;20048;-81
2022/05/24 04:57:19;;;;;;;8.60;3.92;;;;;;;19.03;52.89;94794.63;4919884;29;20046;-82
2022/05/24 04:59:46;;;;;;;12.25;4.00;;;;;;;18.75;53.06;94761.47;4919034;29;20062;-81
2022/05/24 05:02:12;;;;;;;9.60;4.57;;;;;;;19.11;52.67;94801.78;4919111;29;20047;-82
2022/05/24 05:04:37;;;;;;;10.68;4.00;;;;;;;19.03;52.50;94778.50;4919595;29;20028;-82
2022/05/24 05:07:03;;;;;;;10.32;4.22;;;;;;;18.91;53.21;94778.50;4919388;29;20024;-81
2022/05/24 05:09:34;;;;;;;18.65;4.88;;;;;;;19.22;53.01;94842.44;4936608;29;20098;-82
2022/05/24 05:12:03;;;;;;;8.55;4.15;;;;;;;19.06;52.71;94793.94;4918835;29;20118;-82
2022/05/24 05:14:29;;;;;;;9.32;3.47;;;;;;;19.07;52.78;94789.38;4919104;29;20138;-82
2022/05/24 05:16:54;;;;;;;14.40;4.00;;;;;;;19.69;52.63;94860.81;4935579;29;20046;-81
2022/05/24 05:19:20;;;;;;;6.95;3.63;;;;;;;19.21;52.73;94805.94;4919107;29;20043;-81
2022/05/24 05:21:46;;;;;;;11.18;3.90;;;;;;;19.54;52.67;94825.41;4936417;29;20445;-82
2022/05/24 05:24:14;;;;;;;8.50;3.88;;;;;;;18.99;53.13;94777.59;4919036;29;20032;-81
2022/05/24 05:26:39;;;;;;;13.55;3.95;;;;;;;19.58;52.63;94833.59;4918750;29;20036;-81
2022/05/24 05:29:05;;;;;;;7.82;3.92;;;;;;;18.96;52.79;94727.22;4918503;29;20039;-81
2022/05/24 05:31:38;;;;;;;12.65;3.78;;;;;;;19.54;52.18;94814.66;4918250;29;20046;-81
2022/05/24 05:34:04;;;;;;;13.27;3.83;;;;;;;19.74;52.25;94852.53;4918358;29;20039;-81
2022/05/24 05:36:33;;;;;;;12.20;4.13;;;;;;;19.23;53.38;94819.81;4935740;29;20410;-81
2022/05/24 05:38:59;;;;;;;13.07;4.15;;;;;;;19.77;52.63;94876.84;4918524;29;20035;-81
2022/05/24 05:41:31;;;;;;;18.38;3.90;;;;;;;19.24;52.26;94781.84;4935463;29;20055;-81
2022/05/24 05:43:58;;;;;;;19.30;4.15;;;;;;;20.01;51.55;94876.00;4918838;29;20432;-82
2022/05/24 05:46:24;;;;;;;11.52;4.05;;;;;;;19.35;52.70;94802.91;4935805;28;20089;-82
2022/05/24 05:48:49;;;;;;;12.02;3.78;;;;;;;19.83;51.98;94882.78;4935527;29;20098;-81
2022/05/24 05:51:17;;;;;;;9.88;4.95;;;;;;;19.81;52.19;94890.41;4935951;29;20775;-82
2022/05/24 05:53:43;;;;;;;14.05;4.32;;;;;;;19.36;52.09;94828.66;4918640;29;20043;-82
2022/05/24 05:56:17;;;;;;;16.17;4.18;;;;;;;19.76;52.53;94888.72;4918337;29;20043;-82
2022/05/24 05:58:43;;;;;;;12.52;4.75;;;;;;;18.95;52.58;94749.03;4935303;29;20055;-81
2022/05/24 06:01:14;;;;;;;11.85;4.25;;;;;;;19.63;52.38;94863.75;4918291;29;20067;-82
2022/05/24 06:03:39;;;;;;;16.27;4.63;;;;;;;19.84;52.76;94865.50;4918394;29;20071;-82
2022/05/24 06:06:05;;;;;;;9.15;3.65;;;;;;;20.15;52.59;94905.25;4918293;29;20075;-82
2022/05/24 06:08:30;;;;;;;9.05;3.97;;;;;;;19.78;51.59;94845.34;4918111;29;20076;-81
2022/05/24 06:10:56;;;;;;;12.75;4.05;;;;;;;18.99;52.09;94780.28;4918036;29;20047;-81
2022/05/24 06:13:21;;;;;;;13.82;4.35;;;;;;;19.48;51.67;94842.13;4935837;29;20038;-82
2022/05/24 06:15:50;;;;;;;8.73;4.22;;;;;;;19.75;52.22;94906.00;4936419;29;20040;-81
2022/05/24 06:18:16;;;;;;;13.20;4.43;;;;;;;19.69;51.50;94863.50;4938628;29;20395;-82
2022/05/24 06:20:41;;;;;;;12.90;4.38;;;;;;;20.04;51.61;94892.28;4919150;29;20106;-81
2022/05/24 06:23:09;;;;;;;8.57;4.55;;;;;;;19.18;51.57;94761.69;4918060;29;20441;-82
2022/05/24 06:25:34;;;;;;;12.30;5.18;;;;;;;20.00;51.01;94886.00;4918330;29;20050;-82
2022/05/24 06:28:00;;;;;;;10.27;5.10;;;;;;;20.26;51.50;94904.44;4917960;29;20020;-82
2022/05/24 06:30:26;;;;;;;7.97;4.35;;;;;;;19.37;51.61;94779.16;4917677;29;20046;-82
2022/05/24 06:32:52;;;;;;;15.95;4.25;;;;;;;19.75;51.75;94838.75;4917472;29;20087;-81
2022/05/24 06:35:19;;;;;;;17.92;5.35;;;;;;;20.01;50.93;94860.66;4917635;29;20123;-81
2022/05/24 06:37:45;;;;;;;15.23;4.60;;;;;;;19.95;51.10;94824.34;4917528;29;20039;-81
2022/05/24 06:40:15;;;;;;;12.48;4.63;;;;;;;20.24;50.73;94843.97;4935042;29;20122;-82
2022/05/24 06:42:40;;;;;;;12.85;5.07;;;;;;;19.92;50.98;94798.09;4917316;29;20126;-82
2022/05/24 06:45:07;;;;;;;11.73;5.18;;;;;;;20.53;50.93;94865.22;4917614;29;20063;-82
2022/05/24 06:47:32;;;;;;;11.18;4.15;;;;;;;20.65;50.68;94885.94;4916925;29;20489;-81
2022/05/24 06:49:58;;;;;;;11.23;5.35;;;;;;;20.34;50.51;94814.69;4917224;29;20046;-82
2022/05/24 06:52:24;;;;;;;16.13;5.60;;;;;;;20.33;50.63;94829.28;4934080;29;20043;-81
2022/05/24 06:54:51;;;;;;;11.55;4.50;;;;;;;20.59;49.95;94855.78;4934974;29;20039;-82
2022/05/24 06:57:17;;;;;;;12.80;5.50;;;;;;;20.11;49.73;94767.88;4918505;29;20103;-81
2022/05/24 07:02:26;;;;;;;15.48;4.85;;;;;;;19.83;50.12;94727.50;4935113;29;20524;-82
2022/05/24 07:05:05;;;;;;;13.80;5.40;;;;;;;20.19;50.80;94793.06;4934368;29;20036;-82
2022/05/24 07:07:32;;;;;;;14.90;5.38;;;;;;;20.72;50.62;94849.19;4934817;29;20071;-82
2022/05/24 07:09:59;;;;;;;13.23;5.53;;;;;;;19.76;50.33;94713.84;4934423;29;20141;-82
2022/05/24 07:12:25;;;;;;;21.50;6.07;;;;;;;20.28;49.87;94766.78;4935183;29;20217;-82
2022/05/24 07:14:51;;;;;;;10.48;5.22;;;;;;;20.92;50.27;94866.25;4934386;29;20148;-82
2022/05/24 07:17:17;;;;;;;16.10;5.13;;;;;;;21.06;50.66;94876.59;4917426;29;20040;-82
2022/05/24 07:19:44;;;;;;;11.18;4.68;;;;;;;20.99;51.12;94879.13;4934222;29;20043;-82
2022/05/24 07:22:10;;;;;;;10.32;4.72;;;;;;;20.78;50.75;94863.97;4934124;29;20550;-82
2022/05/24 07:24:36;;;;;;;14.23;5.22;;;;;;;20.63;49.62;94866.63;4934533;29;20046;-81
2022/05/24 07:27:04;;;;;;;12.48;5.20;;;;;;;21.03;49.43;94874.63;4934488;29;20493;-82
2022/05/24 07:29:33;;;;;;;9.80;4.65;;;;;;;21.27;49.41;94887.97;4916556;29;20066;-82
2022/05/24 07:31:59;;;;;;;12.13;5.10;;;;;;;20.67;49.82;94810.94;4917071;29;20055;-83
2022/05/24 07:34:24;;;;;;;14.32;4.53;;;;;;;21.02;49.62;94814.53;4934091;29;20129;-81
2022/05/24 07:36:50;;;;;;;9.00;4.63;;;;;;;21.29;49.60;94842.53;4934469;29;20534;-81
2022/05/24 07:39:15;;;;;;;16.85;4.82;;;;;;;21.17;50.20;94823.75;4918595;29;20530;-82
2022/05/24 07:47:09;;;;;;;12.05;4.40;;;;;;;21.54;50.18;94851.22;4938183;29;20106;-82
2022/05/24 07:49:36;;;;;;;15.35;5.10;;;;;;;21.49;49.88;94819.13;4938138;29;20036;-82
2022/05/24 07:52:04;;;;;;;15.80;5.32;;;;;;;21.56;51.20;94851.66;4938098;29;20040;-81
2022/05/24 07:54:30;;;;;;;10.82;4.30;;;;;;;21.43;50.69;94807.84;4920484;29;20031;-82
2022/05/24 07:56:55;;;;;;;11.65;4.78;;;;;;;21.82;49.59;94842.97;4937778;29;20042;-81
2022/05/24 07:59:21;;;;;;;17.23;4.85;;;;;;;21.53;48.88;94801.09;4920402;29;20138;-82
2022/05/24 08:01:46;;;;;;;8.88;4.38;;;;;;;21.68;48.73;94807.56;4920826;29;20548;-82
2022/05/24 08:04:12;;;;;;;8.80;4.90;;;;;;;21.49;48.12;94795.63;4937653;29;20045;-82
2022/05/24 08:06:38;;;;;;;10.57;4.82;;;;;;;21.37;48.42;94749.09;4920742;29;20103;-81
2022/05/24 08:09:04;;;;;;;16.33;7.43;;;;;;;21.41;48.70;94782.31;4920246;29;20055;-81
2022/05/24 08:11:29;;;;;;;14.20;6.32;;;;;;;21.88;48.96;94814.59;4937034;29;20118;-82
2022/05/24 08:13:58;;;;;;;12.68;4.90;;;;;;;21.66;49.13;94817.97;4936808;29;20565;-83
2022/05/24 08:16:24;;;;;;;16.23;5.95;;;;;;;22.05;51.03;94875.53;4920041;29;20513;-82
2022/05/24 08:18:49;;;;;;;12.73;5.45;;;;;;;21.86;49.33;94831.13;4919738;29;20036;-83
2022/05/24 08:21:15;;;;;;;10.10;4.88;;;;;;;22.11;49.79;94866.03;4937380;29;20042;-81
2022/05/24 08:23:41;;;;;;;14.90;5.00;;;;;;;21.92;48.61;94826.22;4920180;29;20053;-82
2022/05/24 08:26:06;;;;;;;11.43;5.18;;;;;;;21.72;48.79;94801.16;4937854;29;20542;-82
2022/05/24 08:28:32;;;;;;;17.67;5.50;;;;;;;22.24;48.08;94840.44;4920699;29;20495;-82
2022/05/24 08:30:59;;;;;;;13.65;5.30;;;;;;;22.30;47.56;94815.47;4937596;29;20063;-82
2022/05/24 08:33:25;;;;;;;16.85;5.20;;;;;;;22.68;48.79;94860.59;4937439;29;20106;-83
2022/05/24 08:35:52;;;;;;;12.77;4.53;;;;;;;22.09;48.34;94773.78;4920030;29;20055;-82
2022/05/24 08:38:17;;;;;;;10.20;5.53;;;;;;;22.29;48.02;94803.09;4937117;29;20039;-82
2022/05/24 08:40:46;;;;;;;9.88;5.28;;;;;;;22.84;47.81;94859.75;4919673;29;20031;-83
2022/05/24 08:43:14;;;;;;;20.45;5.78;;;;;;;22.92;48.55;94854.13;4937382;29;20120;-82
2022/05/24 08:48:53;;;;;;;12.30;5.25;;;;;;;22.87;46.78;94840.91;4937217;29;20054;-81
2022/05/24 08:51:32;;;;;;;12.50;4.82;;;;;;;22.82;47.10;94818.78;4935981;29;20107;-82
2022/05/24 08:54:09;;;;;;;15.07;5.32;;;;;;;23.23;47.89;94861.22;4936351;29;20054;-82
2022/05/24 08:56:41;;;;;;;13.32;4.90;;;;;;;23.41;47.85;94856.13;4920137;29;20048;-82
2022/05/24 08:59:37;;;;;;;11.98;4.72;;;;;;;23.47;46.38;94860.84;4919434;29;20058;-82
2022/05/24 09:02:06;;;;;;;15.77;5.82;;;;;;;23.25;46.27;94844.63;4920034;29;20032;-83
2022/05/24 09:04:31;;;;;;;10.57;4.97;;;;;;;23.63;46.58;94858.03;4919131;29;20040;-82
2022/05/24 09:07:03;;;;;;;12.30;5.70;;;;;;;22.99;46.35;94800.16;4919251;29;20038;-82
2022/05/24 09:09:28;;;;;;;15.30;5.35;;;;;;;23.57;45.52;94856.00;4936461;29;20032;-81
2022/05/24 09:12:21;;;;;;;14.00;5.15;;;;;;;23.68;46.23;94855.00;4919012;29;20112;-81
2022/05/24 09:18:26;;;;;;;;;;;;;;;23.64;45.84;94843.38;4937031;29;20046;-81
2022/05/24 09:20:52;;;;;;;15.50;6.53;;;;;;;23.76;45.97;94842.34;4919218;29;19950;-82
2022/05/24 09:23:29;;;;;;;13.50;5.38;;;;;;;23.04;48.24;94715.22;4935935;29;20051;-82
2022/05/24 09:26:00;;;;;;;12.88;5.30;;;;;;;23.93;46.82;94832.94;4936256;29;20467;-82
2022/05/24 09:28:40;;;;;;;11.00;5.57;;;;;;;24.04;45.58;94831.91;4918792;29;20039;-81
2022/05/24 09:31:07;;;;;;;13.43;5.28;;;;;;;24.07;45.36;94812.22;4936337;29;20036;-81
2022/05/24 09:33:33;;;;;;;13.63;5.63;;;;;;;24.26;44.31;94832.25;4936065;29;20478;-81
2022/05/24 09:36:00;;;;;;;9.90;5.10;;;;;;;23.98;46.30;94808.22;4918737;29;20052;-81
2022/05/24 09:38:34;;;;;;;14.25;5.43;;;;;;;24.06;46.74;94785.50;4918284;29;20103;-81
2022/05/24 09:41:15;;;;;;;14.00;4.97;;;;;;;24.10;45.38;94783.63;4935230;28;20043;-82
2022/05/24 09:43:40;;;;;;;10.45;5.32;;;;;;;24.22;45.16;94767.94;4918392;29;20118;-82
2022/05/24 09:46:08;;;;;;;19.75;5.68;;;;;;;25.34;43.75;94801.94;4918744;29;20479;-81
2022/05/24 09:48:37;;;;;;;15.95;5.07;;;;;;;26.22;41.24;94802.91;4918496;29;20075;-81
2022/05/24 09:51:09;;;;;;;7.65;4.93;;;;;;;26.74;39.06;94747.91;4935317;29;20067;-82
2022/05/24 09:53:47;;;;;;;14.18;4.68;;;;;;;28.09;37.54;94823.34;4917624;29;20522;-82
2022/05/24 09:56:33;;;;;;;16.70;5.22;;;;;;;28.71;35.65;94794.28;4918217;29;20032;-82
2022/05/24 09:59:03;;;;;;;8.85;4.45;;;;;;;29.17;35.36;94769.44;4917675;29;20483;-82
2022/05/24 10:01:36;;;;;;;12.50;5.07;;;;;;;30.03;35.71;94815.16;4935189;29;20039;-83
2022/05/24 10:04:16;;;;;;;10.52;4.22;;;;;;;30.50;34.47;94819.75;4917782;29;20051;-82
2022/05/24 10:06:52;;;;;;;15.10;4.45;;;;;;;30.75;33.57;94818.63;4917854;29;20095;-82
2022/05/24 10:09:43;;;;;;;10.50;4.93;;;;;;;31.27;33.32;94811.66;4934834;29;20164;-82
2022/05/24 10:12:27;;;;;;;10.05;4.38;;;;;;;31.62;33.03;94815.81;4935149;29;20036;-82
2022/05/24 10:15:13;;;;;;;16.15;5.35;;;;;;;31.98;31.25;94817.94;4935577;29;20040;-82
2022/05/24 10:17:52;;;;;;;8.82;4.72;;;;;;;31.87;31.57;94807.16;4905010;29;20048;-82
2022/05/24 10:20:30;;;;;;;12.85;4.80;;;;;;;32.32;30.45;94813.00;4935312;29;20027;-82
2022/05/24 10:23:12;;;;;;;15.68;5.30;;;;;;;32.43;30.79;94815.53;4935748;29;20046;-82
2022/05/24 10:26:07;;;;;;;13.75;4.40;;;;;;;32.20;30.02;94777.97;4935657;29;20039;-82
2022/05/24 10:28:50;;;;;;;16.17;5.53;;;;;;;32.32;29.99;94813.00;4934554;28;20046;-82
2022/05/24 10:31:34;;;;;;;16.77;4.75;;;;;;;32.28;30.77;94806.81;4918227;29;20453;-82
2022/05/24 10:40:45;;;;;;;12.95;5.07;;;;;;;32.57;31.55;94793.31;4902521;29;20051;-82
2022/05/24 10:43:13;;;;;;;10.52;5.32;;;;;;;32.62;32.13;94792.78;4879247;29;20072;-82
2022/05/24 10:45:50;;;;;;;17.85;5.63;;;;;;;32.34;29.29;94702.84;4914358;29;20044;-82
2022/05/24 10:48:26;;;;;;;12.43;5.03;;;;;;;32.51;30.18;94720.88;4918306;29;20050;-82
2022/05/24 10:51:08;;;;;;;9.68;4.97;;;;;;;32.79;29.58;94731.25;4917566;29;20043;-82
2022/05/24 10:53:58;;;;;;;12.38;5.13;;;;;;;32.89;29.41;94785.16;4935182;29;20106;-82
2022/05/24 10:56:34;;;;;;;17.02;5.03;;;;;;;33.16;29.66;94776.72;4917350;28;20031;-81
2022/05/24 10:59:40;;;;;;;10.18;5.35;;;;;;;33.41;28.63;94789.88;4934563;29;20079;-81
2022/05/24 11:02:40;;;;;;;13.15;5.65;;;;;;;33.59;28.39;94794.94;4933298;29;20059;-82
2022/05/24 11:05:25;;;;;;;16.50;5.73;;;;;;;33.50;29.74;94784.53;4917280;29;20078;-82
2022/05/24 11:08:01;;;;;;;11.80;5.43;;;;;;;33.64;29.78;94781.44;4916863;29;20110;-81
2022/05/24 11:10:49;;;;;;;13.85;5.40;;;;;;;33.64;28.78;94747.69;4917102;29;20134;-82
2022/05/24 11:13:22;;;;;;;8.45;5.03;;;;;;;33.78;28.23;94765.81;4934889;29;20043;-81
2022/05/24 11:15:53;;;;;;;8.43;5.25;;;;;;;33.99;28.03;94765.25;4920829;29;20422;-82
2022/05/24 11:18:24;;;;;;;13.32;5.28;;;;;;;33.97;27.64;94738.16;4938647;29;20036;-81
2022/05/24 11:21:01;;;;;;;16.95;5.55;;;;;;;33.52;28.08;94713.41;4920749;29;20047;-81
2022/05/24 11:24:01;;;;;;;13.90;6.00;;;;;;;33.84;29.34;94753.84;4920320;29;20055;-81
2022/05/24 11:26:30;;;;;;;11.30;5.45;;;;;;;33.99;28.57;94746.75;4924663;29;20521;-81
2022/05/24 11:29:24;;;;;;;15.38;5.93;;;;;;;34.44;27.42;94745.91;4920498;29;20046;-81
2022/05/24 11:31:58;;;;;;;16.48;5.30;;;;;;;34.22;28.08;94744.97;4920445;29;20051;-81
2022/05/24 11:34:33;;;;;;;9.40;5.05;;;;;;;33.96;29.39;94706.34;4937572;29;20098;-82
2022/05/24 11:37:31;;;;;;;13.57;5.65;;;;;;;33.93;28.84;94733.97;4920825;29;20599;-82
2022/05/24 11:40:40;;;;;;;20.17;6.32;;;;;;;33.81;28.48;94729.19;4937846;29;20036;-81
2022/05/24 11:43:07;;;;;;;11.40;5.75;;;;;;;34.48;27.83;94722.56;4932260;29;20059;-81
2022/05/24 11:45:32;;;;;;;14.57;5.60;;;;;;;34.37;28.37;94724.88;4920656;29;20419;-82
2022/05/24 11:48:07;;;;;;;9.98;5.85;;;;;;;34.58;27.51;94720.72;4937834;29;20094;-82
2022/05/24 11:50:46;;;;;;;12.45;5.88;;;;;;;34.51;26.65;94685.13;4920559;29;20050;-82
2022/05/24 11:53:15;;;;;;;17.10;5.85;;;;;;;34.03;27.68;94697.91;4937993;29;20122;-81
2022/05/24 11:55:53;;;;;;;14.27;6.35;;;;;;;34.39;27.26;94692.19;4920749;29;20058;-82
2022/05/24 11:58:21;;;;;;;21.58;6.13;;;;;;;34.71;28.34;94693.94;4937939;29;20066;-82
2022/05/24 12:01:26;;;;;;;15.82;6.28;;;;;;;34.69;28.31;94684.59;4920341;29;20509;-82
2022/05/24 12:10:33;;;;;;;19.58;6.35;;;;;;;33.92;28.58;94636.16;4937462;29;20047;-81
2022/05/24 12:13:05;;;;;;;13.75;5.35;;;;;;;32.72;29.30;94679.25;4904971;29;20071;-81
2022/05/24 12:15:30;;;;;;;18.50;5.82;;;;;;;32.29;30.46;94676.66;4937576;29;20126;-82
2022/05/24 12:17:59;;;;;;;15.13;5.93;;;;;;;32.64;30.65;94680.59;4936925;29;20565;-82
2022/05/24 12:20:33;;;;;;;14.88;6.05;;;;;;;32.78;30.68;94680.28;4936667;29;20395;-81
2022/05/24 12:23:14;;;;;;;12.52;6.15;;;;;;;32.69;30.09;94668.34;4936217;29;20050;-81